H.kanter — ESUB — position and weather

sailwx.info

Track history (hours):
 
Tides and Currents Weather Stations Pressure Air Temp Water Temp Dewpoint Dewpoint Depression Visibility Wind Speed Wind Dir Waves Ship Positions

H.kanter

Last reported at 2018-Feb-25 08:01 UTC. Time now 2018-Feb-25 08:14 UTC.
Position N 59°30' E 024°56'.

Length 30 m; draft 4.8 m.

Type: Tug. MMSI: 276504000.

Date/timePositionNaut miles runAvg speedWind from/ knotsBaromVisibWave heightAir tempDewpointWater temp
2018-Feb-25 08:01N 59°30' E 024°56'0 0.0
2018-Feb-25 07:31N 59°30' E 024°56'0 0.0
2018-Feb-25 07:00N 59°30' E 024°56'0 0.0
2018-Feb-25 06:30N 59°30' E 024°56'0 0.0
2018-Feb-25 06:01N 59°30' E 024°56'0 0.0
2018-Feb-25 05:30N 59°30' E 024°56'0 0.0
2018-Feb-25 05:00N 59°30' E 024°56'0 0.0
2018-Feb-25 04:31N 59°30' E 024°56'0 0.0
2018-Feb-25 04:01N 59°30' E 024°56'0 0.0
2018-Feb-25 03:30N 59°30' E 024°56'0 0.0
2018-Feb-25 03:01N 59°30' E 024°56'0 0.0
2018-Feb-25 02:31N 59°30' E 024°56'0 0.0
2018-Feb-25 02:00N 59°30' E 024°56'0 0.0
2018-Feb-25 01:30N 59°30' E 024°56'0 0.0
2018-Feb-25 01:01N 59°30' E 024°56'0 0.0
2018-Feb-25 00:30N 59°30' E 024°56'0 0.0
2018-Feb-25 00:00N 59°30' E 024°56'0 0.0
2018-Feb-24 23:31N 59°30' E 024°56'0 0.0
2018-Feb-24 23:00N 59°30' E 024°56'0 0.0
2018-Feb-24 22:30N 59°30' E 024°56'0 0.0
2018-Feb-24 22:00N 59°30' E 024°56'0 0.0
2018-Feb-24 21:31N 59°30' E 024°56'0 0.0
2018-Feb-24 21:01N 59°30' E 024°56'0 0.0
2018-Feb-24 20:31N 59°30' E 024°56'0 0.0
2018-Feb-24 20:00N 59°30' E 024°56'0 0.0
2018-Feb-24 19:31N 59°30' E 024°56'0 0.0
2018-Feb-24 19:00N 59°30' E 024°56'0 0.0
2018-Feb-24 18:31N 59°30' E 024°56'0 0.0
2018-Feb-24 18:00N 59°30' E 024°56'0 0.0
2018-Feb-24 17:31N 59°30' E 024°56'0 0.0
2018-Feb-24 17:00N 59°30' E 024°56'0 0.0
2018-Feb-24 16:31N 59°30' E 024°56'0 0.0
2018-Feb-24 16:01N 59°30' E 024°56'0 0.0
2018-Feb-24 15:31N 59°30' E 024°56'0 0.0
2018-Feb-24 15:01N 59°30' E 024°56'0 0.0
2018-Feb-24 14:30N 59°30' E 024°56'0 0.0
2018-Feb-24 14:01N 59°30' E 024°56'0 0.0
2018-Feb-24 13:31N 59°30' E 024°56'0 0.0
2018-Feb-24 13:01N 59°30' E 024°56'0 0.0
2018-Feb-24 12:30N 59°30' E 024°56'0 0.0
2018-Feb-24 12:00N 59°30' E 024°56'0 0.0
2018-Feb-24 11:31N 59°30' E 024°56'0 0.0
2018-Feb-24 11:01N 59°30' E 024°56'0 0.0
2018-Feb-24 10:30N 59°30' E 024°56'0 0.0
2018-Feb-24 10:01N 59°30' E 024°56'0 0.0
2018-Feb-24 09:30N 59°30' E 024°56'0 0.0
2018-Feb-24 09:00N 59°30' E 024°56'0 0.0
2018-Feb-24 08:30N 59°30' E 024°56'0 0.0
2018-Feb-24 08:01N 59°30' E 024°56'0 0.0
2018-Feb-24 07:30N 59°30' E 024°56'0 0.0
2018-Feb-24 07:01N 59°30' E 024°56'0 0.0
2018-Feb-24 06:30N 59°30' E 024°56'0 0.0
2018-Feb-24 06:00N 59°30' E 024°56'0 0.0
2018-Feb-24 05:30N 59°30' E 024°56'0 0.0
2018-Feb-24 05:01N 59°30' E 024°56'0 0.0
2018-Feb-24 04:30N 59°30' E 024°56'0 0.0
2018-Feb-24 04:01N 59°30' E 024°56'0 0.0
2018-Feb-24 03:31N 59°30' E 024°56'0 0.0
2018-Feb-24 03:01N 59°30' E 024°56'0 0.0
2018-Feb-24 02:30N 59°30' E 024°56'0 0.0
2018-Feb-24 02:01N 59°30' E 024°56'0 0.0
2018-Feb-24 01:30N 59°30' E 024°56'0 0.0
2018-Feb-24 01:01N 59°30' E 024°56'0 0.0
2018-Feb-24 00:00N 59°30' E 024°56'2 4.1
2018-Feb-23 23:30N 59°32' E 024°56'510.5
2018-Feb-23 23:01N 59°36' E 024°49'510.6
2018-Feb-23 22:30N 59°38' E 024°39'5 9.1
2018-Feb-23 22:00N 59°38' E 024°31'5 9.4
2018-Feb-23 21:30N 59°36' E 024°23'510.1
2018-Feb-23 21:01N 59°32' E 024°15'4 0.5
2018-Feb-23 13:25N 59°30' E 024°09'410.6
2018-Feb-23 13:00N 59°33' E 024°16'510.6
2018-Feb-23 12:31N 59°36' E 024°24'510.2
2018-Feb-23 12:00N 59°38' E 024°33'611.1
2018-Feb-23 11:31N 59°38' E 024°44'510.9
2018-Feb-23 11:01N 59°34' E 024°52'510.2
2018-Feb-23 10:31N 59°30' E 024°57'0 1.0
2018-Feb-23 10:01N 59°30' E 024°56'0 0.0
2018-Feb-23 09:31N 59°30' E 024°56'0 0.0
2018-Feb-23 09:00N 59°30' E 024°56'0 0.0
2018-Feb-23 08:30N 59°30' E 024°56'0 0.0
2018-Feb-23 08:00N 59°30' E 024°56'0 0.0
2018-Feb-23 07:30N 59°30' E 024°56'0 0.0
2018-Feb-23 07:01N 59°30' E 024°56'0 0.0
2018-Feb-23 06:31N 59°30' E 024°56'0 0.0
2018-Feb-23 06:01N 59°30' E 024°56'0 0.0
2018-Feb-23 05:30N 59°30' E 024°56'0 0.0
2018-Feb-23 05:01N 59°30' E 024°56'0 0.0
2018-Feb-23 04:30N 59°30' E 024°56'0 0.0
2018-Feb-23 04:00N 59°30' E 024°56'0 0.0
2018-Feb-23 03:30N 59°30' E 024°56'0 0.0
2018-Feb-23 03:01N 59°30' E 024°56'0 0.0
2018-Feb-23 02:31N 59°30' E 024°56'0 0.0
2018-Feb-23 02:00N 59°30' E 024°56'0 0.0
2018-Feb-23 01:30N 59°30' E 024°56'0 0.0
2018-Feb-23 01:00N 59°30' E 024°56'0 0.0
2018-Feb-23 00:31N 59°30' E 024°56'0 0.0
2018-Feb-23 00:01N 59°30' E 024°56'0 0.0
2018-Feb-22 23:30N 59°30' E 024°56'0 0.0
2018-Feb-22 23:00N 59°30' E 024°56'0 0.0
2018-Feb-22 22:30N 59°30' E 024°56'3 5.6
2018-Feb-22 22:01N 59°33' E 024°55'610.9
2018-Feb-22 21:30N 59°36' E 024°47'510.7
2018-Feb-22 21:00N 59°38' E 024°37'510.6
2018-Feb-22 20:30N 59°38' E 024°27'611.1
2018-Feb-22 20:00N 59°34' E 024°19'6 0.8
2018-Feb-22 11:38N 59°30' E 024°10'110.4
2018-Feb-22 11:30N 59°31' E 024°12'510.4
2018-Feb-22 11:00N 59°34' E 024°19'510.7
2018-Feb-22 10:30N 59°38' E 024°27'510.6
2018-Feb-22 10:01N 59°38' E 024°37'5 9.6
2018-Feb-22 09:31N 59°37' E 024°47'611.2
2018-Feb-22 09:01N 59°33' E 024°54'4 7.2
2018-Feb-22 08:30N 59°30' E 024°56'0 0.0
2018-Feb-22 08:00N 59°30' E 024°56'0 0.0
2018-Feb-22 07:30N 59°30' E 024°56'0 0.0
2018-Feb-22 07:00N 59°30' E 024°56'0 0.0
2018-Feb-22 06:31N 59°30' E 024°56'0 0.0
2018-Feb-22 06:00N 59°30' E 024°56'0 0.0
2018-Feb-22 05:31N 59°30' E 024°56'0 0.0
2018-Feb-22 05:00N 59°30' E 024°56'0 0.0
2018-Feb-22 04:31N 59°30' E 024°56'0 0.0
2018-Feb-22 04:01N 59°30' E 024°56'0 0.0
2018-Feb-22 03:31N 59°30' E 024°56'0 0.0
2018-Feb-22 03:01N 59°30' E 024°56'0 0.0
2018-Feb-22 02:29N 59°30' E 024°56'0 0.0
2018-Feb-22 02:01N 59°30' E 024°56'0 0.0
2018-Feb-22 01:31N 59°30' E 024°56'0 0.0
2018-Feb-22 01:01N 59°30' E 024°56'0 0.0
2018-Feb-22 00:31N 59°30' E 024°56'0 0.0
2018-Feb-22 00:00N 59°30' E 024°56'0 0.0
2018-Feb-21 23:31N 59°30' E 024°56'0 0.0
2018-Feb-21 23:00N 59°30' E 024°56'0 0.0
2018-Feb-21 22:30N 59°30' E 024°56'0 0.0
2018-Feb-21 22:01N 59°30' E 024°56'0 0.0
2018-Feb-21 21:31N 59°30' E 024°56'0 0.0
2018-Feb-21 21:00N 59°30' E 024°56'0 0.0
2018-Feb-21 20:30N 59°30' E 024°56'0 0.0
2018-Feb-21 20:01N 59°30' E 024°56'0 0.0
2018-Feb-21 19:31N 59°30' E 024°56'0 0.0
2018-Feb-21 19:01N 59°30' E 024°56'0 0.0
2018-Feb-21 18:31N 59°30' E 024°56'0 0.0
2018-Feb-21 18:00N 59°30' E 024°56'0 0.0
2018-Feb-21 17:31N 59°30' E 024°56'0 0.0
2018-Feb-21 17:01N 59°30' E 024°56'0 0.0
2018-Feb-21 16:30N 59°30' E 024°56'0 0.0
2018-Feb-21 16:00N 59°30' E 024°56'0 0.0
2018-Feb-21 15:31N 59°30' E 024°56'1 1.7
2018-Feb-21 15:01N 59°29' E 024°58'1 1.5
2018-Feb-21 14:31N 59°30' E 024°57'0 0.2
2018-Feb-21 14:01N 59°30' E 024°56'0 0.0
2018-Feb-21 13:31N 59°30' E 024°56'0 0.0
2018-Feb-21 13:01N 59°30' E 024°56'0 0.0
2018-Feb-21 12:31N 59°30' E 024°56'0 0.0
2018-Feb-21 12:01N 59°30' E 024°56'0 0.0
2018-Feb-21 11:31N 59°30' E 024°56'0 0.0
2018-Feb-21 11:01N 59°30' E 024°56'1 1.5
2018-Feb-21 10:31N 59°30' E 024°58'1 1.5
2018-Feb-21 10:00N 59°30' E 024°56'0 0.0
2018-Feb-21 09:31N 59°30' E 024°56'0 0.0
2018-Feb-21 09:00N 59°30' E 024°56'0 0.3
2018-Feb-21 08:31N 59°30' E 024°57'0 0.3
2018-Feb-21 08:00N 59°30' E 024°56'0 0.0
2018-Feb-21 07:30N 59°30' E 024°56'0 0.0
2018-Feb-21 07:00N 59°30' E 024°56'0 0.0
2018-Feb-21 06:31N 59°30' E 024°56'0 0.0
2018-Feb-21 06:00N 59°30' E 024°56'0 0.0
2018-Feb-21 05:30N 59°30' E 024°56'0 0.0
2018-Feb-21 05:00N 59°30' E 024°56'0 0.0
2018-Feb-21 04:30N 59°30' E 024°56'0 0.0
2018-Feb-21 04:00N 59°30' E 024°56'0 0.0
2018-Feb-21 03:30N 59°30' E 024°56'0 0.0
2018-Feb-21 03:01N 59°30' E 024°56'0 0.0
2018-Feb-21 02:30N 59°30' E 024°56'0 0.0
2018-Feb-21 02:01N 59°30' E 024°56'0 0.0
2018-Feb-21 01:30N 59°30' E 024°56'0 0.0
2018-Feb-21 01:01N 59°30' E 024°56'0 0.0
2018-Feb-21 00:30N 59°30' E 024°56'0 0.0
2018-Feb-21 00:00N 59°30' E 024°56'0 0.0
2018-Feb-20 23:30N 59°30' E 024°56'0 0.0
2018-Feb-20 23:00N 59°30' E 024°56'0 0.0
2018-Feb-20 22:31N 59°30' E 024°56'0 0.0
2018-Feb-20 22:00N 59°30' E 024°56'0 0.0
2018-Feb-20 21:31N 59°30' E 024°56'0 0.0
2018-Feb-20 21:00N 59°30' E 024°56'0 0.0
2018-Feb-20 20:30N 59°30' E 024°56'0 0.0
2018-Feb-20 20:01N 59°30' E 024°56'0 0.0
2018-Feb-20 19:31N 59°30' E 024°56'0 0.0
2018-Feb-20 19:00N 59°30' E 024°56'0 0.0
2018-Feb-20 18:31N 59°30' E 024°56'0 0.0
2018-Feb-20 18:00N 59°30' E 024°56'0 0.0
2018-Feb-20 17:30N 59°30' E 024°56'0 0.0
2018-Feb-20 17:01N 59°30' E 024°56'0 0.0
2018-Feb-20 16:30N 59°30' E 024°56'0 0.0
2018-Feb-20 16:01N 59°30' E 024°56'1 1.8
2018-Feb-20 15:31N 59°29' E 024°58'1 2.3
2018-Feb-20 15:01N 59°31' E 024°58'1 2.2
2018-Feb-20 14:31N 59°30' E 024°56'0 0.0
2018-Feb-20 14:00N 59°30' E 024°56'0 0.0
2018-Feb-20 13:30N 59°30' E 024°56'0 0.0
2018-Feb-20 13:01N 59°30' E 024°56'0 0.0
2018-Feb-20 12:31N 59°30' E 024°56'0 0.0
2018-Feb-20 12:01N 59°30' E 024°56'0 0.0
2018-Feb-20 11:31N 59°30' E 024°56'0 0.0
2018-Feb-20 11:01N 59°30' E 024°56'0 0.0
2018-Feb-20 10:30N 59°30' E 024°56'0 0.0
2018-Feb-20 10:01N 59°30' E 024°56'0 0.0
2018-Feb-20 09:30N 59°30' E 024°56'0 0.0
2018-Feb-20 09:00N 59°30' E 024°56'0 0.0
2018-Feb-20 08:31N 59°30' E 024°56'0 0.0
2018-Feb-20 08:01N 59°30' E 024°56'0 0.0
2018-Feb-20 07:31N 59°30' E 024°56'0 0.0
2018-Feb-20 07:01N 59°30' E 024°56'0 0.0
2018-Feb-20 06:31N 59°30' E 024°56'0 0.0
2018-Feb-20 06:00N 59°30' E 024°56'0 0.0
2018-Feb-20 05:31N 59°30' E 024°56'0 0.0
2018-Feb-20 05:00N 59°30' E 024°56'0 0.0
2018-Feb-20 04:30N 59°30' E 024°56'0 0.0
2018-Feb-20 04:01N 59°30' E 024°56'0 0.0
2018-Feb-20 03:30N 59°30' E 024°56'0 0.0
2018-Feb-20 03:00N 59°30' E 024°56'0 0.0
2018-Feb-20 02:30N 59°30' E 024°56'0 0.0
2018-Feb-20 02:01N 59°30' E 024°56'0 0.0
2018-Feb-20 01:30N 59°30' E 024°56'0 0.0
2018-Feb-20 01:01N 59°30' E 024°56'0 0.0
2018-Feb-20 00:31N 59°30' E 024°56'0 0.0
2018-Feb-20 00:00N 59°30' E 024°56'0 0.0
2018-Feb-19 23:31N 59°30' E 024°56'0 0.0
2018-Feb-19 23:00N 59°30' E 024°56'0 0.0
2018-Feb-19 22:31N 59°30' E 024°56'0 0.0
2018-Feb-19 22:01N 59°30' E 024°56'0 0.0
2018-Feb-19 21:30N 59°30' E 024°56'0 0.0
2018-Feb-19 21:01N 59°30' E 024°56'0 0.0
2018-Feb-19 20:30N 59°30' E 024°56'0 0.0
2018-Feb-19 20:01N 59°30' E 024°56'0 0.0
2018-Feb-19 19:31N 59°30' E 024°56'0 0.0
2018-Feb-19 19:00N 59°30' E 024°56'0 0.0
2018-Feb-19 18:31N 59°30' E 024°56'0 0.0
2018-Feb-19 18:00N 59°30' E 024°56'0 0.0
2018-Feb-19 17:30N 59°30' E 024°56'0 0.0
2018-Feb-19 17:00N 59°30' E 024°56'0 0.0
2018-Feb-19 16:30N 59°30' E 024°56'0 0.0
2018-Feb-19 16:00N 59°30' E 024°56'0 0.0
2018-Feb-19 15:30N 59°30' E 024°56'0 0.0
2018-Feb-19 15:01N 59°30' E 024°56'0 0.0
2018-Feb-19 14:30N 59°30' E 024°56'0 0.0
2018-Feb-19 14:01N 59°30' E 024°56'0 0.0
2018-Feb-19 13:31N 59°30' E 024°56'0 0.0
2018-Feb-19 13:01N 59°30' E 024°56'0 0.0
2018-Feb-19 12:31N 59°30' E 024°56'0 0.0
2018-Feb-19 12:00N 59°30' E 024°56'1 1.2
2018-Feb-19 11:30N 59°30' E 024°58'1 1.3
2018-Feb-19 11:01N 59°30' E 024°56'0 0.0
2018-Feb-19 10:31N 59°30' E 024°56'0 0.0
2018-Feb-19 10:00N 59°30' E 024°56'0 0.0
2018-Feb-19 09:30N 59°30' E 024°56'0 0.0
2018-Feb-19 09:00N 59°30' E 024°56'0 0.0
2018-Feb-19 08:31N 59°30' E 024°56'0 0.0
2018-Feb-19 08:01N 59°30' E 024°56'0 0.0
2018-Feb-19 07:31N 59°30' E 024°56'0 0.0
2018-Feb-19 07:00N 59°30' E 024°56'0 0.0
2018-Feb-19 06:31N 59°30' E 024°56'0 0.0
2018-Feb-19 05:59N 59°30' E 024°56'0 0.0
2018-Feb-19 05:31N 59°30' E 024°56'0 0.0
2018-Feb-19 05:00N 59°30' E 024°56'0 0.0
2018-Feb-19 04:30N 59°30' E 024°56'0 0.0
2018-Feb-19 04:00N 59°30' E 024°56'0 0.0
2018-Feb-19 03:31N 59°30' E 024°56'0 0.0
2018-Feb-19 03:00N 59°30' E 024°56'0 0.0
2018-Feb-19 02:30N 59°30' E 024°56'0 0.0
2018-Feb-19 02:01N 59°30' E 024°56'0 0.0
2018-Feb-19 01:31N 59°30' E 024°56'0 0.0
2018-Feb-19 01:00N 59°30' E 024°56'0 0.0
2018-Feb-19 00:31N 59°30' E 024°56'0 0.0
2018-Feb-19 00:01N 59°30' E 024°56'0 0.0
2018-Feb-18 23:30N 59°30' E 024°56'0 0.0
2018-Feb-18 23:01N 59°30' E 024°56'0 0.0
2018-Feb-18 22:31N 59°30' E 024°56'0 0.0
2018-Feb-18 22:00N 59°30' E 024°56'0 0.0
2018-Feb-18 21:31N 59°30' E 024°56'0 0.0
2018-Feb-18 21:01N 59°30' E 024°56'0 0.0
2018-Feb-18 20:31N 59°30' E 024°56'0 0.0
2018-Feb-18 20:01N 59°30' E 024°56'0 0.0
2018-Feb-18 19:31N 59°30' E 024°56'0 0.0
2018-Feb-18 19:01N 59°30' E 024°56'0 0.0
2018-Feb-18 18:31N 59°30' E 024°56'0 0.0
2018-Feb-18 18:00N 59°30' E 024°56'0 0.0
2018-Feb-18 17:30N 59°30' E 024°56'0 0.0
2018-Feb-18 17:00N 59°30' E 024°56'0 0.0
2018-Feb-18 16:30N 59°30' E 024°56'0 0.0
2018-Feb-18 16:01N 59°30' E 024°56'0 0.0
2018-Feb-18 15:30N 59°30' E 024°56'0 0.0
2018-Feb-18 15:01N 59°30' E 024°56'0 0.0
2018-Feb-18 14:31N 59°30' E 024°56'0 0.0
2018-Feb-18 14:01N 59°30' E 024°56'0 0.0
2018-Feb-18 13:31N 59°30' E 024°56'0 0.0
2018-Feb-18 13:01N 59°30' E 024°56'0 0.0
2018-Feb-18 12:31N 59°30' E 024°56'0 0.0
2018-Feb-18 12:00N 59°30' E 024°56'0 0.0
2018-Feb-18 11:31N 59°30' E 024°56'0 0.0
2018-Feb-18 11:01N 59°30' E 024°56'0 0.0
2018-Feb-18 10:31N 59°30' E 024°56'0 0.0
2018-Feb-18 10:01N 59°30' E 024°56'0 0.0
2018-Feb-18 09:30N 59°30' E 024°56'0 0.0
2018-Feb-18 09:01N 59°30' E 024°56'0 0.0
2018-Feb-18 08:31N 59°30' E 024°56'0 0.0
2018-Feb-18 08:01N 59°30' E 024°56'0 0.0
2018-Feb-18 07:31N 59°30' E 024°56'0 0.0
2018-Feb-18 07:00N 59°30' E 024°56'0 0.0
2018-Feb-18 06:31N 59°30' E 024°56'0 0.0
2018-Feb-18 06:00N 59°30' E 024°56'0 0.0
2018-Feb-18 05:31N 59°30' E 024°56'0 0.0
2018-Feb-18 05:01N 59°30' E 024°56'0 0.0
2018-Feb-18 04:31N 59°30' E 024°56'0 0.0
2018-Feb-18 04:01N 59°30' E 024°56'0 0.0
2018-Feb-18 03:30N 59°30' E 024°56'0 0.0
2018-Feb-18 03:00N 59°30' E 024°56'0 0.0
2018-Feb-18 02:31N 59°30' E 024°56'0 0.0
2018-Feb-18 02:01N 59°30' E 024°56'0 0.0
2018-Feb-18 01:30N 59°30' E 024°56'0 0.0
2018-Feb-18 01:01N 59°30' E 024°56'0 0.0
2018-Feb-18 00:31N 59°30' E 024°56'0 0.0
2018-Feb-18 00:00N 59°30' E 024°56'0 0.0
2018-Feb-17 23:31N 59°30' E 024°56'0 0.0
2018-Feb-17 23:01N 59°30' E 024°56'0 0.0
2018-Feb-17 22:30N 59°30' E 024°56'0 0.0
2018-Feb-17 22:01N 59°30' E 024°56'0 0.0
2018-Feb-17 21:30N 59°30' E 024°56'0 0.0
2018-Feb-17 21:01N 59°30' E 024°56'0 0.0
2018-Feb-17 20:30N 59°30' E 024°56'0 0.0
2018-Feb-17 20:01N 59°30' E 024°56'0 0.0
2018-Feb-17 19:30N 59°30' E 024°56'0 0.0
2018-Feb-17 19:00N 59°30' E 024°56'0 0.0
2018-Feb-17 18:31N 59°30' E 024°56'0 0.0
2018-Feb-17 18:00N 59°30' E 024°56'0 0.0
2018-Feb-17 17:31N 59°30' E 024°56'0 0.0
2018-Feb-17 17:01N 59°30' E 024°56'0 0.0
2018-Feb-17 16:30N 59°30' E 024°56'0 0.0
2018-Feb-17 16:00N 59°30' E 024°56'0 0.0
2018-Feb-17 15:30N 59°30' E 024°56'0 0.0
2018-Feb-17 15:00N 59°30' E 024°56'0 0.0
2018-Feb-17 14:29N 59°30' E 024°56'0 0.0
2018-Feb-17 14:00N 59°30' E 024°56'0 0.0
2018-Feb-17 13:31N 59°30' E 024°56'0 0.0
2018-Feb-17 13:00N 59°30' E 024°56'0 0.0
2018-Feb-17 12:31N 59°30' E 024°56'1 1.5
2018-Feb-17 12:01N 59°30' E 024°58'0 0.2
2018-Feb-17 11:31N 59°30' E 024°58'0 1.0
2018-Feb-17 11:01N 59°30' E 024°58'1 1.9
2018-Feb-17 10:31N 59°30' E 024°56'0 0.0
2018-Feb-17 10:01N 59°30' E 024°56'0 0.0
2018-Feb-17 09:30N 59°30' E 024°56'0 0.0
2018-Feb-17 09:00N 59°30' E 024°56'0 0.0
2018-Feb-17 08:30N 59°30' E 024°56'1 1.2
2018-Feb-17 08:01N 59°30' E 024°58'0 0.0
2018-Feb-17 07:30N 59°30' E 024°58'0 1.0
2018-Feb-17 07:01N 59°30' E 024°57'1 1.5
2018-Feb-17 06:30N 59°30' E 024°56'0 0.0
2018-Feb-17 06:00N 59°30' E 024°56'0 0.0
2018-Feb-17 05:31N 59°30' E 024°56'0 0.0
2018-Feb-17 05:01N 59°30' E 024°56'1 1.5
2018-Feb-17 04:31N 59°30' E 024°58'0 0.4
2018-Feb-17 04:01N 59°30' E 024°58'1 1.4
2018-Feb-17 03:31N 59°30' E 024°56'0 0.0
2018-Feb-17 03:01N 59°30' E 024°56'0 0.0
2018-Feb-17 02:31N 59°30' E 024°56'0 0.0
2018-Feb-17 02:01N 59°30' E 024°56'0 0.0
2018-Feb-17 01:30N 59°30' E 024°56'0 0.0
2018-Feb-17 01:01N 59°30' E 024°56'0 0.0
2018-Feb-17 00:31N 59°30' E 024°56'0 0.0
2018-Feb-17 00:00N 59°30' E 024°56'0 0.0
2018-Feb-16 23:30N 59°30' E 024°56'0 0.0
2018-Feb-16 23:00N 59°30' E 024°56'0 0.0
2018-Feb-16 22:30N 59°30' E 024°56'0 0.0
2018-Feb-16 22:01N 59°30' E 024°56'0 0.0
2018-Feb-16 21:30N 59°30' E 024°56'0 0.0
2018-Feb-16 21:01N 59°30' E 024°56'0 0.0
2018-Feb-16 20:31N 59°30' E 024°56'0 0.0
2018-Feb-16 20:01N 59°30' E 024°56'0 0.0
2018-Feb-16 19:31N 59°30' E 024°56'0 0.0
2018-Feb-16 19:01N 59°30' E 024°56'0 0.0
2018-Feb-16 18:29N 59°30' E 024°56'0 0.0
2018-Feb-16 18:00N 59°30' E 024°56'0 0.0
2018-Feb-16 17:31N 59°30' E 024°56'0 0.0
2018-Feb-16 17:01N 59°30' E 024°56'0 0.0
2018-Feb-16 16:30N 59°30' E 024°56'0 0.0
2018-Feb-16 16:00N 59°30' E 024°56'0 0.0
2018-Feb-16 15:30N 59°30' E 024°56'0 0.0
2018-Feb-16 15:01N 59°30' E 024°56'0 0.0
2018-Feb-16 14:30N 59°30' E 024°56'0 0.0
2018-Feb-16 14:01N 59°30' E 024°56'0 0.0
2018-Feb-16 13:31N 59°30' E 024°56'0 0.0
2018-Feb-16 13:01N 59°30' E 024°56'0 0.0
2018-Feb-16 12:30N 59°30' E 024°56'0 0.0
2018-Feb-16 12:01N 59°30' E 024°56'0 0.0
2018-Feb-16 11:30N 59°30' E 024°56'0 0.0
2018-Feb-16 11:00N 59°30' E 024°56'0 0.0
2018-Feb-16 10:30N 59°30' E 024°56'0 0.0
2018-Feb-16 10:01N 59°30' E 024°56'0 0.0
2018-Feb-16 09:30N 59°30' E 024°56'0 0.0
2018-Feb-16 09:01N 59°30' E 024°56'1 1.7
2018-Feb-16 08:31N 59°30' E 024°58'1 2.3
2018-Feb-16 08:00N 59°31' E 024°58'1 2.4
2018-Feb-16 07:30N 59°30' E 024°56'0 0.0
2018-Feb-16 07:01N 59°30' E 024°56'0 0.0
2018-Feb-16 06:31N 59°30' E 024°56'0 0.0
2018-Feb-16 06:00N 59°30' E 024°56'0 0.0
2018-Feb-16 05:31N 59°30' E 024°56'0 0.0
2018-Feb-16 05:00N 59°30' E 024°56'0 0.0
2018-Feb-16 04:31N 59°30' E 024°56'0 0.0
2018-Feb-16 04:00N 59°30' E 024°56'0 0.0
2018-Feb-16 03:30N 59°30' E 024°56'0 0.0
2018-Feb-16 03:01N 59°30' E 024°56'0 0.0
2018-Feb-16 02:31N 59°30' E 024°56'0 0.0
2018-Feb-16 02:01N 59°30' E 024°56'0 0.0
2018-Feb-16 01:30N 59°30' E 024°56'0 0.0
2018-Feb-16 01:01N 59°30' E 024°56'0 0.0
2018-Feb-16 00:31N 59°30' E 024°56'0 0.0
2018-Feb-16 00:00N 59°30' E 024°56'0 0.0
2018-Feb-15 23:31N 59°30' E 024°56'0 0.0
2018-Feb-15 23:01N 59°30' E 024°56'0 0.0
2018-Feb-15 22:31N 59°30' E 024°56'0 0.0
2018-Feb-15 22:01N 59°30' E 024°56'0 0.0
2018-Feb-15 21:31N 59°30' E 024°56'0 0.0
2018-Feb-15 21:00N 59°30' E 024°56'0 0.0
2018-Feb-15 20:30N 59°30' E 024°56'0 0.0
2018-Feb-15 20:01N 59°30' E 024°56'0 0.0
2018-Feb-15 19:31N 59°30' E 024°56'0 0.0
2018-Feb-15 18:59N 59°30' E 024°56'0 0.0
2018-Feb-15 18:31N 59°30' E 024°56'0 0.0
2018-Feb-15 18:01N 59°30' E 024°56'0 0.0
2018-Feb-15 17:30N 59°30' E 024°56'0 0.0
2018-Feb-15 17:01N 59°30' E 024°56'1 1.0
2018-Feb-15 16:30N 59°30' E 024°57'0 0.5
2018-Feb-15 16:01N 59°30' E 024°57'0 0.0
2018-Feb-15 15:31N 59°30' E 024°57'0 0.7
2018-Feb-15 15:01N 59°30' E 024°56'0 0.0
2018-Feb-15 14:30N 59°30' E 024°56'0 0.0
2018-Feb-15 14:01N 59°30' E 024°56'0 0.0
2018-Feb-15 13:30N 59°30' E 024°56'0 0.0
2018-Feb-15 13:01N 59°30' E 024°56'0 0.0
2018-Feb-15 12:30N 59°30' E 024°56'0 0.0
2018-Feb-15 12:00N 59°30' E 024°56'0 0.0
2018-Feb-15 11:30N 59°30' E 024°56'0 0.0
2018-Feb-15 11:00N 59°30' E 024°56'0 0.0
2018-Feb-15 10:31N 59°30' E 024°56'0 0.0
2018-Feb-15 10:00N 59°30' E 024°56'0 0.0
2018-Feb-15 09:31N 59°30' E 024°56'0 0.0
2018-Feb-15 09:01N 59°30' E 024°56'0 0.0
2018-Feb-15 08:30N 59°30' E 024°56'  
Track history (hours):
 
Tides and Currents Weather Stations Pressure Air Temp Water Temp Dewpoint Dewpoint Depression Visibility Wind Speed Wind Dir Waves Ship Positions

H.kanter

Last reported at 2018-Feb-25 08:01 UTC. Time now 2018-Feb-25 08:14 UTC.
Position N 59°30' E 024°56'.

Length 30 m; draft 4.8 m.

Type: Tug. MMSI: 276504000.

Date/timePositionNaut miles runAvg speedWind from/ knotsBaromVisibWave heightAir tempDewpointWater temp
2018-Feb-25 08:01N 59°30' E 024°56'0 0.0
2018-Feb-25 07:31N 59°30' E 024°56'0 0.0
2018-Feb-25 07:00N 59°30' E 024°56'0 0.0
2018-Feb-25 06:30N 59°30' E 024°56'0 0.0
2018-Feb-25 06:01N 59°30' E 024°56'0 0.0
2018-Feb-25 05:30N 59°30' E 024°56'0 0.0
2018-Feb-25 05:00N 59°30' E 024°56'0 0.0
2018-Feb-25 04:31N 59°30' E 024°56'0 0.0
2018-Feb-25 04:01N 59°30' E 024°56'0 0.0
2018-Feb-25 03:30N 59°30' E 024°56'0 0.0
2018-Feb-25 03:01N 59°30' E 024°56'0 0.0
2018-Feb-25 02:31N 59°30' E 024°56'0 0.0
2018-Feb-25 02:00N 59°30' E 024°56'0 0.0
2018-Feb-25 01:30N 59°30' E 024°56'0 0.0
2018-Feb-25 01:01N 59°30' E 024°56'0 0.0
2018-Feb-25 00:30N 59°30' E 024°56'0 0.0
2018-Feb-25 00:00N 59°30' E 024°56'0 0.0
2018-Feb-24 23:31N 59°30' E 024°56'0 0.0
2018-Feb-24 23:00N 59°30' E 024°56'0 0.0
2018-Feb-24 22:30N 59°30' E 024°56'0 0.0
2018-Feb-24 22:00N 59°30' E 024°56'0 0.0
2018-Feb-24 21:31N 59°30' E 024°56'0 0.0
2018-Feb-24 21:01N 59°30' E 024°56'0 0.0
2018-Feb-24 20:31N 59°30' E 024°56'0 0.0
2018-Feb-24 20:00N 59°30' E 024°56'0 0.0
2018-Feb-24 19:31N 59°30' E 024°56'0 0.0
2018-Feb-24 19:00N 59°30' E 024°56'0 0.0
2018-Feb-24 18:31N 59°30' E 024°56'0 0.0
2018-Feb-24 18:00N 59°30' E 024°56'0 0.0
2018-Feb-24 17:31N 59°30' E 024°56'0 0.0
2018-Feb-24 17:00N 59°30' E 024°56'0 0.0
2018-Feb-24 16:31N 59°30' E 024°56'0 0.0
2018-Feb-24 16:01N 59°30' E 024°56'0 0.0
2018-Feb-24 15:31N 59°30' E 024°56'0 0.0
2018-Feb-24 15:01N 59°30' E 024°56'0 0.0
2018-Feb-24 14:30N 59°30' E 024°56'0 0.0
2018-Feb-24 14:01N 59°30' E 024°56'0 0.0
2018-Feb-24 13:31N 59°30' E 024°56'0 0.0
2018-Feb-24 13:01N 59°30' E 024°56'0 0.0
2018-Feb-24 12:30N 59°30' E 024°56'0 0.0
2018-Feb-24 12:00N 59°30' E 024°56'0 0.0
2018-Feb-24 11:31N 59°30' E 024°56'0 0.0
2018-Feb-24 11:01N 59°30' E 024°56'0 0.0
2018-Feb-24 10:30N 59°30' E 024°56'0 0.0
2018-Feb-24 10:01N 59°30' E 024°56'0 0.0
2018-Feb-24 09:30N 59°30' E 024°56'0 0.0
2018-Feb-24 09:00N 59°30' E 024°56'0 0.0
2018-Feb-24 08:30N 59°30' E 024°56'0 0.0
2018-Feb-24 08:01N 59°30' E 024°56'0 0.0
2018-Feb-24 07:30N 59°30' E 024°56'0 0.0
2018-Feb-24 07:01N 59°30' E 024°56'0 0.0
2018-Feb-24 06:30N 59°30' E 024°56'0 0.0
2018-Feb-24 06:00N 59°30' E 024°56'0 0.0
2018-Feb-24 05:30N 59°30' E 024°56'0 0.0
2018-Feb-24 05:01N 59°30' E 024°56'0 0.0
2018-Feb-24 04:30N 59°30' E 024°56'0 0.0
2018-Feb-24 04:01N 59°30' E 024°56'0 0.0
2018-Feb-24 03:31N 59°30' E 024°56'0 0.0
2018-Feb-24 03:01N 59°30' E 024°56'0 0.0
2018-Feb-24 02:30N 59°30' E 024°56'0 0.0
2018-Feb-24 02:01N 59°30' E 024°56'0 0.0
2018-Feb-24 01:30N 59°30' E 024°56'0 0.0
2018-Feb-24 01:01N 59°30' E 024°56'0 0.0
2018-Feb-24 00:00N 59°30' E 024°56'2 4.1
2018-Feb-23 23:30N 59°32' E 024°56'510.5
2018-Feb-23 23:01N 59°36' E 024°49'510.6
2018-Feb-23 22:30N 59°38' E 024°39'5 9.1
2018-Feb-23 22:00N 59°38' E 024°31'5 9.4
2018-Feb-23 21:30N 59°36' E 024°23'510.1
2018-Feb-23 21:01N 59°32' E 024°15'4 0.5
2018-Feb-23 13:25N 59°30' E 024°09'410.6
2018-Feb-23 13:00N 59°33' E 024°16'510.6
2018-Feb-23 12:31N 59°36' E 024°24'510.2
2018-Feb-23 12:00N 59°38' E 024°33'611.1
2018-Feb-23 11:31N 59°38' E 024°44'510.9
2018-Feb-23 11:01N 59°34' E 024°52'510.2
2018-Feb-23 10:31N 59°30' E 024°57'0 1.0
2018-Feb-23 10:01N 59°30' E 024°56'0 0.0
2018-Feb-23 09:31N 59°30' E 024°56'0 0.0
2018-Feb-23 09:00N 59°30' E 024°56'0 0.0
2018-Feb-23 08:30N 59°30' E 024°56'0 0.0
2018-Feb-23 08:00N 59°30' E 024°56'0 0.0
2018-Feb-23 07:30N 59°30' E 024°56'0 0.0
2018-Feb-23 07:01N 59°30' E 024°56'0 0.0
2018-Feb-23 06:31N 59°30' E 024°56'0 0.0
2018-Feb-23 06:01N 59°30' E 024°56'0 0.0
2018-Feb-23 05:30N 59°30' E 024°56'0 0.0
2018-Feb-23 05:01N 59°30' E 024°56'0 0.0
2018-Feb-23 04:30N 59°30' E 024°56'0 0.0
2018-Feb-23 04:00N 59°30' E 024°56'0 0.0
2018-Feb-23 03:30N 59°30' E 024°56'0 0.0
2018-Feb-23 03:01N 59°30' E 024°56'0 0.0
2018-Feb-23 02:31N 59°30' E 024°56'0 0.0
2018-Feb-23 02:00N 59°30' E 024°56'0 0.0
2018-Feb-23 01:30N 59°30' E 024°56'0 0.0
2018-Feb-23 01:00N 59°30' E 024°56'0 0.0
2018-Feb-23 00:31N 59°30' E 024°56'0 0.0
2018-Feb-23 00:01N 59°30' E 024°56'0 0.0
2018-Feb-22 23:30N 59°30' E 024°56'0 0.0
2018-Feb-22 23:00N 59°30' E 024°56'0 0.0
2018-Feb-22 22:30N 59°30' E 024°56'3 5.6
2018-Feb-22 22:01N 59°33' E 024°55'610.9
2018-Feb-22 21:30N 59°36' E 024°47'510.7
2018-Feb-22 21:00N 59°38' E 024°37'510.6
2018-Feb-22 20:30N 59°38' E 024°27'611.1
2018-Feb-22 20:00N 59°34' E 024°19'6 0.8
2018-Feb-22 11:38N 59°30' E 024°10'110.4
2018-Feb-22 11:30N 59°31' E 024°12'510.4
2018-Feb-22 11:00N 59°34' E 024°19'510.7
2018-Feb-22 10:30N 59°38' E 024°27'510.6
2018-Feb-22 10:01N 59°38' E 024°37'5 9.6
2018-Feb-22 09:31N 59°37' E 024°47'611.2
2018-Feb-22 09:01N 59°33' E 024°54'4 7.2
2018-Feb-22 08:30N 59°30' E 024°56'0 0.0
2018-Feb-22 08:00N 59°30' E 024°56'0 0.0
2018-Feb-22 07:30N 59°30' E 024°56'0 0.0
2018-Feb-22 07:00N 59°30' E 024°56'0 0.0
2018-Feb-22 06:31N 59°30' E 024°56'0 0.0
2018-Feb-22 06:00N 59°30' E 024°56'0 0.0
2018-Feb-22 05:31N 59°30' E 024°56'0 0.0
2018-Feb-22 05:00N 59°30' E 024°56'0 0.0
2018-Feb-22 04:31N 59°30' E 024°56'0 0.0
2018-Feb-22 04:01N 59°30' E 024°56'0 0.0
2018-Feb-22 03:31N 59°30' E 024°56'0 0.0
2018-Feb-22 03:01N 59°30' E 024°56'0 0.0
2018-Feb-22 02:29N 59°30' E 024°56'0 0.0
2018-Feb-22 02:01N 59°30' E 024°56'0 0.0
2018-Feb-22 01:31N 59°30' E 024°56'0 0.0
2018-Feb-22 01:01N 59°30' E 024°56'0 0.0
2018-Feb-22 00:31N 59°30' E 024°56'0 0.0
2018-Feb-22 00:00N 59°30' E 024°56'0 0.0
2018-Feb-21 23:31N 59°30' E 024°56'0 0.0
2018-Feb-21 23:00N 59°30' E 024°56'0 0.0
2018-Feb-21 22:30N 59°30' E 024°56'0 0.0
2018-Feb-21 22:01N 59°30' E 024°56'0 0.0
2018-Feb-21 21:31N 59°30' E 024°56'0 0.0
2018-Feb-21 21:00N 59°30' E 024°56'0 0.0
2018-Feb-21 20:30N 59°30' E 024°56'0 0.0
2018-Feb-21 20:01N 59°30' E 024°56'0 0.0
2018-Feb-21 19:31N 59°30' E 024°56'0 0.0
2018-Feb-21 19:01N 59°30' E 024°56'0 0.0
2018-Feb-21 18:31N 59°30' E 024°56'0 0.0
2018-Feb-21 18:00N 59°30' E 024°56'0 0.0
2018-Feb-21 17:31N 59°30' E 024°56'0 0.0
2018-Feb-21 17:01N 59°30' E 024°56'0 0.0
2018-Feb-21 16:30N 59°30' E 024°56'0 0.0
2018-Feb-21 16:00N 59°30' E 024°56'0 0.0
2018-Feb-21 15:31N 59°30' E 024°56'1 1.7
2018-Feb-21 15:01N 59°29' E 024°58'1 1.5
2018-Feb-21 14:31N 59°30' E 024°57'0 0.2
2018-Feb-21 14:01N 59°30' E 024°56'0 0.0
2018-Feb-21 13:31N 59°30' E 024°56'0 0.0
2018-Feb-21 13:01N 59°30' E 024°56'0 0.0
2018-Feb-21 12:31N 59°30' E 024°56'0 0.0
2018-Feb-21 12:01N 59°30' E 024°56'0 0.0
2018-Feb-21 11:31N 59°30' E 024°56'0 0.0
2018-Feb-21 11:01N 59°30' E 024°56'1 1.5
2018-Feb-21 10:31N 59°30' E 024°58'1 1.5
2018-Feb-21 10:00N 59°30' E 024°56'0 0.0
2018-Feb-21 09:31N 59°30' E 024°56'0 0.0
2018-Feb-21 09:00N 59°30' E 024°56'0 0.3
2018-Feb-21 08:31N 59°30' E 024°57'0 0.3
2018-Feb-21 08:00N 59°30' E 024°56'0 0.0
2018-Feb-21 07:30N 59°30' E 024°56'0 0.0
2018-Feb-21 07:00N 59°30' E 024°56'0 0.0
2018-Feb-21 06:31N 59°30' E 024°56'0 0.0
2018-Feb-21 06:00N 59°30' E 024°56'0 0.0
2018-Feb-21 05:30N 59°30' E 024°56'0 0.0
2018-Feb-21 05:00N 59°30' E 024°56'0 0.0
2018-Feb-21 04:30N 59°30' E 024°56'0 0.0
2018-Feb-21 04:00N 59°30' E 024°56'0 0.0
2018-Feb-21 03:30N 59°30' E 024°56'0 0.0
2018-Feb-21 03:01N 59°30' E 024°56'0 0.0
2018-Feb-21 02:30N 59°30' E 024°56'0 0.0
2018-Feb-21 02:01N 59°30' E 024°56'0 0.0
2018-Feb-21 01:30N 59°30' E 024°56'0 0.0
2018-Feb-21 01:01N 59°30' E 024°56'0 0.0
2018-Feb-21 00:30N 59°30' E 024°56'0 0.0
2018-Feb-21 00:00N 59°30' E 024°56'0 0.0
2018-Feb-20 23:30N 59°30' E 024°56'0 0.0
2018-Feb-20 23:00N 59°30' E 024°56'0 0.0
2018-Feb-20 22:31N 59°30' E 024°56'0 0.0
2018-Feb-20 22:00N 59°30' E 024°56'0 0.0
2018-Feb-20 21:31N 59°30' E 024°56'0 0.0
2018-Feb-20 21:00N 59°30' E 024°56'0 0.0
2018-Feb-20 20:30N 59°30' E 024°56'0 0.0
2018-Feb-20 20:01N 59°30' E 024°56'0 0.0
2018-Feb-20 19:31N 59°30' E 024°56'0 0.0
2018-Feb-20 19:00N 59°30' E 024°56'0 0.0
2018-Feb-20 18:31N 59°30' E 024°56'0 0.0
2018-Feb-20 18:00N 59°30' E 024°56'0 0.0
2018-Feb-20 17:30N 59°30' E 024°56'0 0.0
2018-Feb-20 17:01N 59°30' E 024°56'0 0.0
2018-Feb-20 16:30N 59°30' E 024°56'0 0.0
2018-Feb-20 16:01N 59°30' E 024°56'1 1.8
2018-Feb-20 15:31N 59°29' E 024°58'1 2.3
2018-Feb-20 15:01N 59°31' E 024°58'1 2.2
2018-Feb-20 14:31N 59°30' E 024°56'0 0.0
2018-Feb-20 14:00N 59°30' E 024°56'0 0.0
2018-Feb-20 13:30N 59°30' E 024°56'0 0.0
2018-Feb-20 13:01N 59°30' E 024°56'0 0.0
2018-Feb-20 12:31N 59°30' E 024°56'0 0.0
2018-Feb-20 12:01N 59°30' E 024°56'0 0.0
2018-Feb-20 11:31N 59°30' E 024°56'0 0.0
2018-Feb-20 11:01N 59°30' E 024°56'0 0.0
2018-Feb-20 10:30N 59°30' E 024°56'0 0.0
2018-Feb-20 10:01N 59°30' E 024°56'0 0.0
2018-Feb-20 09:30N 59°30' E 024°56'0 0.0
2018-Feb-20 09:00N 59°30' E 024°56'0 0.0
2018-Feb-20 08:31N 59°30' E 024°56'0 0.0
2018-Feb-20 08:01N 59°30' E 024°56'0 0.0
2018-Feb-20 07:31N 59°30' E 024°56'0 0.0
2018-Feb-20 07:01N 59°30' E 024°56'0 0.0
2018-Feb-20 06:31N 59°30' E 024°56'0 0.0
2018-Feb-20 06:00N 59°30' E 024°56'0 0.0
2018-Feb-20 05:31N 59°30' E 024°56'0 0.0
2018-Feb-20 05:00N 59°30' E 024°56'0 0.0
2018-Feb-20 04:30N 59°30' E 024°56'0 0.0
2018-Feb-20 04:01N 59°30' E 024°56'0 0.0
2018-Feb-20 03:30N 59°30' E 024°56'0 0.0
2018-Feb-20 03:00N 59°30' E 024°56'0 0.0
2018-Feb-20 02:30N 59°30' E 024°56'0 0.0
2018-Feb-20 02:01N 59°30' E 024°56'0 0.0
2018-Feb-20 01:30N 59°30' E 024°56'0 0.0
2018-Feb-20 01:01N 59°30' E 024°56'0 0.0
2018-Feb-20 00:31N 59°30' E 024°56'0 0.0
2018-Feb-20 00:00N 59°30' E 024°56'0 0.0
2018-Feb-19 23:31N 59°30' E 024°56'0 0.0
2018-Feb-19 23:00N 59°30' E 024°56'0 0.0
2018-Feb-19 22:31N 59°30' E 024°56'0 0.0
2018-Feb-19 22:01N 59°30' E 024°56'0 0.0
2018-Feb-19 21:30N 59°30' E 024°56'0 0.0
2018-Feb-19 21:01N 59°30' E 024°56'0 0.0
2018-Feb-19 20:30N 59°30' E 024°56'0 0.0
2018-Feb-19 20:01N 59°30' E 024°56'0 0.0
2018-Feb-19 19:31N 59°30' E 024°56'0 0.0
2018-Feb-19 19:00N 59°30' E 024°56'0 0.0
2018-Feb-19 18:31N 59°30' E 024°56'0 0.0
2018-Feb-19 18:00N 59°30' E 024°56'0 0.0
2018-Feb-19 17:30N 59°30' E 024°56'0 0.0
2018-Feb-19 17:00N 59°30' E 024°56'0 0.0
2018-Feb-19 16:30N 59°30' E 024°56'0 0.0
2018-Feb-19 16:00N 59°30' E 024°56'0 0.0
2018-Feb-19 15:30N 59°30' E 024°56'0 0.0
2018-Feb-19 15:01N 59°30' E 024°56'0 0.0
2018-Feb-19 14:30N 59°30' E 024°56'0 0.0
2018-Feb-19 14:01N 59°30' E 024°56'0 0.0
2018-Feb-19 13:31N 59°30' E 024°56'0 0.0
2018-Feb-19 13:01N 59°30' E 024°56'0 0.0
2018-Feb-19 12:31N 59°30' E 024°56'0 0.0
2018-Feb-19 12:00N 59°30' E 024°56'1 1.2
2018-Feb-19 11:30N 59°30' E 024°58'1 1.3
2018-Feb-19 11:01N 59°30' E 024°56'0 0.0
2018-Feb-19 10:31N 59°30' E 024°56'0 0.0
2018-Feb-19 10:00N 59°30' E 024°56'0 0.0
2018-Feb-19 09:30N 59°30' E 024°56'0 0.0
2018-Feb-19 09:00N 59°30' E 024°56'0 0.0
2018-Feb-19 08:31N 59°30' E 024°56'0 0.0
2018-Feb-19 08:01N 59°30' E 024°56'0 0.0
2018-Feb-19 07:31N 59°30' E 024°56'0 0.0
2018-Feb-19 07:00N 59°30' E 024°56'0 0.0
2018-Feb-19 06:31N 59°30' E 024°56'0 0.0
2018-Feb-19 05:59N 59°30' E 024°56'0 0.0
2018-Feb-19 05:31N 59°30' E 024°56'0 0.0
2018-Feb-19 05:00N 59°30' E 024°56'0 0.0
2018-Feb-19 04:30N 59°30' E 024°56'0 0.0
2018-Feb-19 04:00N 59°30' E 024°56'0 0.0
2018-Feb-19 03:31N 59°30' E 024°56'0 0.0
2018-Feb-19 03:00N 59°30' E 024°56'0 0.0
2018-Feb-19 02:30N 59°30' E 024°56'0 0.0
2018-Feb-19 02:01N 59°30' E 024°56'0 0.0
2018-Feb-19 01:31N 59°30' E 024°56'0 0.0
2018-Feb-19 01:00N 59°30' E 024°56'0 0.0
2018-Feb-19 00:31N 59°30' E 024°56'0 0.0
2018-Feb-19 00:01N 59°30' E 024°56'0 0.0
2018-Feb-18 23:30N 59°30' E 024°56'0 0.0
2018-Feb-18 23:01N 59°30' E 024°56'0 0.0
2018-Feb-18 22:31N 59°30' E 024°56'0 0.0
2018-Feb-18 22:00N 59°30' E 024°56'0 0.0
2018-Feb-18 21:31N 59°30' E 024°56'0 0.0
2018-Feb-18 21:01N 59°30' E 024°56'0 0.0
2018-Feb-18 20:31N 59°30' E 024°56'0 0.0
2018-Feb-18 20:01N 59°30' E 024°56'0 0.0
2018-Feb-18 19:31N 59°30' E 024°56'0 0.0
2018-Feb-18 19:01N 59°30' E 024°56'0 0.0
2018-Feb-18 18:31N 59°30' E 024°56'0 0.0
2018-Feb-18 18:00N 59°30' E 024°56'0 0.0
2018-Feb-18 17:30N 59°30' E 024°56'0 0.0
2018-Feb-18 17:00N 59°30' E 024°56'0 0.0
2018-Feb-18 16:30N 59°30' E 024°56'0 0.0
2018-Feb-18 16:01N 59°30' E 024°56'0 0.0
2018-Feb-18 15:30N 59°30' E 024°56'0 0.0
2018-Feb-18 15:01N 59°30' E 024°56'0 0.0
2018-Feb-18 14:31N 59°30' E 024°56'0 0.0
2018-Feb-18 14:01N 59°30' E 024°56'0 0.0
2018-Feb-18 13:31N 59°30' E 024°56'0 0.0
2018-Feb-18 13:01N 59°30' E 024°56'0 0.0
2018-Feb-18 12:31N 59°30' E 024°56'0 0.0
2018-Feb-18 12:00N 59°30' E 024°56'0 0.0
2018-Feb-18 11:31N 59°30' E 024°56'0 0.0
2018-Feb-18 11:01N 59°30' E 024°56'0 0.0
2018-Feb-18 10:31N 59°30' E 024°56'0 0.0
2018-Feb-18 10:01N 59°30' E 024°56'0 0.0
2018-Feb-18 09:30N 59°30' E 024°56'0 0.0
2018-Feb-18 09:01N 59°30' E 024°56'0 0.0
2018-Feb-18 08:31N 59°30' E 024°56'0 0.0
2018-Feb-18 08:01N 59°30' E 024°56'0 0.0
2018-Feb-18 07:31N 59°30' E 024°56'0 0.0
2018-Feb-18 07:00N 59°30' E 024°56'0 0.0
2018-Feb-18 06:31N 59°30' E 024°56'0 0.0
2018-Feb-18 06:00N 59°30' E 024°56'0 0.0
2018-Feb-18 05:31N 59°30' E 024°56'0 0.0
2018-Feb-18 05:01N 59°30' E 024°56'0 0.0
2018-Feb-18 04:31N 59°30' E 024°56'0 0.0
2018-Feb-18 04:01N 59°30' E 024°56'0 0.0
2018-Feb-18 03:30N 59°30' E 024°56'0 0.0
2018-Feb-18 03:00N 59°30' E 024°56'0 0.0
2018-Feb-18 02:31N 59°30' E 024°56'0 0.0
2018-Feb-18 02:01N 59°30' E 024°56'0 0.0
2018-Feb-18 01:30N 59°30' E 024°56'0 0.0
2018-Feb-18 01:01N 59°30' E 024°56'0 0.0
2018-Feb-18 00:31N 59°30' E 024°56'0 0.0
2018-Feb-18 00:00N 59°30' E 024°56'0 0.0
2018-Feb-17 23:31N 59°30' E 024°56'0 0.0
2018-Feb-17 23:01N 59°30' E 024°56'0 0.0
2018-Feb-17 22:30N 59°30' E 024°56'0 0.0
2018-Feb-17 22:01N 59°30' E 024°56'0 0.0
2018-Feb-17 21:30N 59°30' E 024°56'0 0.0
2018-Feb-17 21:01N 59°30' E 024°56'0 0.0
2018-Feb-17 20:30N 59°30' E 024°56'0 0.0
2018-Feb-17 20:01N 59°30' E 024°56'0 0.0
2018-Feb-17 19:30N 59°30' E 024°56'0 0.0
2018-Feb-17 19:00N 59°30' E 024°56'0 0.0
2018-Feb-17 18:31N 59°30' E 024°56'0 0.0
2018-Feb-17 18:00N 59°30' E 024°56'0 0.0
2018-Feb-17 17:31N 59°30' E 024°56'0 0.0
2018-Feb-17 17:01N 59°30' E 024°56'0 0.0
2018-Feb-17 16:30N 59°30' E 024°56'0 0.0
2018-Feb-17 16:00N 59°30' E 024°56'0 0.0
2018-Feb-17 15:30N 59°30' E 024°56'0 0.0
2018-Feb-17 15:00N 59°30' E 024°56'0 0.0
2018-Feb-17 14:29N 59°30' E 024°56'0 0.0
2018-Feb-17 14:00N 59°30' E 024°56'0 0.0
2018-Feb-17 13:31N 59°30' E 024°56'0 0.0
2018-Feb-17 13:00N 59°30' E 024°56'0 0.0
2018-Feb-17 12:31N 59°30' E 024°56'1 1.5
2018-Feb-17 12:01N 59°30' E 024°58'0 0.2
2018-Feb-17 11:31N 59°30' E 024°58'0 1.0
2018-Feb-17 11:01N 59°30' E 024°58'1 1.9
2018-Feb-17 10:31N 59°30' E 024°56'0 0.0
2018-Feb-17 10:01N 59°30' E 024°56'0 0.0
2018-Feb-17 09:30N 59°30' E 024°56'0 0.0
2018-Feb-17 09:00N 59°30' E 024°56'0 0.0
2018-Feb-17 08:30N 59°30' E 024°56'1 1.2
2018-Feb-17 08:01N 59°30' E 024°58'0 0.0
2018-Feb-17 07:30N 59°30' E 024°58'0 1.0
2018-Feb-17 07:01N 59°30' E 024°57'1 1.5
2018-Feb-17 06:30N 59°30' E 024°56'0 0.0
2018-Feb-17 06:00N 59°30' E 024°56'0 0.0
2018-Feb-17 05:31N 59°30' E 024°56'0 0.0
2018-Feb-17 05:01N 59°30' E 024°56'1 1.5
2018-Feb-17 04:31N 59°30' E 024°58'0 0.4
2018-Feb-17 04:01N 59°30' E 024°58'1 1.4
2018-Feb-17 03:31N 59°30' E 024°56'0 0.0
2018-Feb-17 03:01N 59°30' E 024°56'0 0.0
2018-Feb-17 02:31N 59°30' E 024°56'0 0.0
2018-Feb-17 02:01N 59°30' E 024°56'0 0.0
2018-Feb-17 01:30N 59°30' E 024°56'0 0.0
2018-Feb-17 01:01N 59°30' E 024°56'0 0.0
2018-Feb-17 00:31N 59°30' E 024°56'0 0.0
2018-Feb-17 00:00N 59°30' E 024°56'0 0.0
2018-Feb-16 23:30N 59°30' E 024°56'0 0.0
2018-Feb-16 23:00N 59°30' E 024°56'0 0.0
2018-Feb-16 22:30N 59°30' E 024°56'0 0.0
2018-Feb-16 22:01N 59°30' E 024°56'0 0.0
2018-Feb-16 21:30N 59°30' E 024°56'0 0.0
2018-Feb-16 21:01N 59°30' E 024°56'0 0.0
2018-Feb-16 20:31N 59°30' E 024°56'0 0.0
2018-Feb-16 20:01N 59°30' E 024°56'0 0.0
2018-Feb-16 19:31N 59°30' E 024°56'0 0.0
2018-Feb-16 19:01N 59°30' E 024°56'0 0.0
2018-Feb-16 18:29N 59°30' E 024°56'0 0.0
2018-Feb-16 18:00N 59°30' E 024°56'0 0.0
2018-Feb-16 17:31N 59°30' E 024°56'0 0.0
2018-Feb-16 17:01N 59°30' E 024°56'0 0.0
2018-Feb-16 16:30N 59°30' E 024°56'0 0.0
2018-Feb-16 16:00N 59°30' E 024°56'0 0.0
2018-Feb-16 15:30N 59°30' E 024°56'0 0.0
2018-Feb-16 15:01N 59°30' E 024°56'0 0.0
2018-Feb-16 14:30N 59°30' E 024°56'0 0.0
2018-Feb-16 14:01N 59°30' E 024°56'0 0.0
2018-Feb-16 13:31N 59°30' E 024°56'0 0.0
2018-Feb-16 13:01N 59°30' E 024°56'0 0.0
2018-Feb-16 12:30N 59°30' E 024°56'0 0.0
2018-Feb-16 12:01N 59°30' E 024°56'0 0.0
2018-Feb-16 11:30N 59°30' E 024°56'0 0.0
2018-Feb-16 11:00N 59°30' E 024°56'0 0.0
2018-Feb-16 10:30N 59°30' E 024°56'0 0.0
2018-Feb-16 10:01N 59°30' E 024°56'0 0.0
2018-Feb-16 09:30N 59°30' E 024°56'0 0.0
2018-Feb-16 09:01N 59°30' E 024°56'1 1.7
2018-Feb-16 08:31N 59°30' E 024°58'1 2.3
2018-Feb-16 08:00N 59°31' E 024°58'1 2.4
2018-Feb-16 07:30N 59°30' E 024°56'0 0.0
2018-Feb-16 07:01N 59°30' E 024°56'0 0.0
2018-Feb-16 06:31N 59°30' E 024°56'0 0.0
2018-Feb-16 06:00N 59°30' E 024°56'0 0.0
2018-Feb-16 05:31N 59°30' E 024°56'0 0.0
2018-Feb-16 05:00N 59°30' E 024°56'0 0.0
2018-Feb-16 04:31N 59°30' E 024°56'0 0.0
2018-Feb-16 04:00N 59°30' E 024°56'0 0.0
2018-Feb-16 03:30N 59°30' E 024°56'0 0.0
2018-Feb-16 03:01N 59°30' E 024°56'0 0.0
2018-Feb-16 02:31N 59°30' E 024°56'0 0.0
2018-Feb-16 02:01N 59°30' E 024°56'0 0.0
2018-Feb-16 01:30N 59°30' E 024°56'0 0.0
2018-Feb-16 01:01N 59°30' E 024°56'0 0.0
2018-Feb-16 00:31N 59°30' E 024°56'0 0.0
2018-Feb-16 00:00N 59°30' E 024°56'0 0.0
2018-Feb-15 23:31N 59°30' E 024°56'0 0.0
2018-Feb-15 23:01N 59°30' E 024°56'0 0.0
2018-Feb-15 22:31N 59°30' E 024°56'0 0.0
2018-Feb-15 22:01N 59°30' E 024°56'0 0.0
2018-Feb-15 21:31N 59°30' E 024°56'0 0.0
2018-Feb-15 21:00N 59°30' E 024°56'0 0.0
2018-Feb-15 20:30N 59°30' E 024°56'0 0.0
2018-Feb-15 20:01N 59°30' E 024°56'0 0.0
2018-Feb-15 19:31N 59°30' E 024°56'0 0.0
2018-Feb-15 18:59N 59°30' E 024°56'0 0.0
2018-Feb-15 18:31N 59°30' E 024°56'0 0.0
2018-Feb-15 18:01N 59°30' E 024°56'0 0.0
2018-Feb-15 17:30N 59°30' E 024°56'0 0.0
2018-Feb-15 17:01N 59°30' E 024°56'1 1.0
2018-Feb-15 16:30N 59°30' E 024°57'0 0.5
2018-Feb-15 16:01N 59°30' E 024°57'0 0.0
2018-Feb-15 15:31N 59°30' E 024°57'0 0.7
2018-Feb-15 15:01N 59°30' E 024°56'0 0.0
2018-Feb-15 14:30N 59°30' E 024°56'0 0.0
2018-Feb-15 14:01N 59°30' E 024°56'0 0.0
2018-Feb-15 13:30N 59°30' E 024°56'0 0.0
2018-Feb-15 13:01N 59°30' E 024°56'0 0.0
2018-Feb-15 12:30N 59°30' E 024°56'0 0.0
2018-Feb-15 12:00N 59°30' E 024°56'0 0.0
2018-Feb-15 11:30N 59°30' E 024°56'0 0.0
2018-Feb-15 11:00N 59°30' E 024°56'0 0.0
2018-Feb-15 10:31N 59°30' E 024°56'0 0.0
2018-Feb-15 10:00N 59°30' E 024°56'0 0.0
2018-Feb-15 09:31N 59°30' E 024°56'0 0.0
2018-Feb-15 09:01N 59°30' E 024°56'0 0.0
2018-Feb-15 08:30N 59°30' E 024°56'  

Dump ship's entire track history